createdAt,value
2023-04-11T00:02:12.014Z,97080.00
2023-04-11T00:04:40.277Z,97080.19
2023-04-11T00:07:08.317Z,97077.15
2023-04-11T00:09:36.356Z,97067.93
2023-04-11T00:12:04.962Z,97061.77
2023-04-11T00:14:34.262Z,97058.40
2023-04-11T00:17:02.300Z,97054.63
2023-04-11T00:19:30.920Z,97058.13
2023-04-11T00:21:58.823Z,97057.14
2023-04-11T00:24:27.178Z,97056.50
2023-04-11T00:26:56.895Z,97056.94
2023-04-11T00:29:24.865Z,97060.09
2023-04-11T00:31:55.580Z,97059.46
2023-04-11T00:34:23.770Z,97059.30
2023-04-11T00:36:51.663Z,97060.27
2023-04-11T00:39:20.533Z,97057.16
2023-04-11T00:41:49.036Z,97059.95
2023-04-11T00:44:17.556Z,97058.65
2023-04-11T00:46:46.514Z,97060.43
2023-04-11T00:49:14.506Z,97064.60
2023-04-11T00:51:42.676Z,97070.70
2023-04-11T00:54:12.200Z,97074.20
2023-04-11T00:56:40.743Z,97069.09
2023-04-11T00:59:09.349Z,97070.84
2023-04-11T01:01:38.470Z,97067.61
2023-04-11T01:04:06.687Z,97067.99
2023-04-11T01:06:34.720Z,97069.55
2023-04-11T01:09:04.986Z,97066.58
2023-04-11T01:11:33.930Z,97066.47
2023-04-11T01:14:03.352Z,97059.70
2023-04-11T01:16:31.528Z,97057.02
2023-04-11T01:18:59.486Z,97053.29
2023-04-11T01:21:28.608Z,97050.92
2023-04-11T01:23:56.685Z,97052.19
2023-04-11T01:26:24.852Z,97054.70
2023-04-11T01:28:52.978Z,97051.84
2023-04-11T01:31:22.064Z,97052.41
2023-04-11T01:33:50.202Z,97050.21
2023-04-11T01:36:18.052Z,97051.65
2023-04-11T01:38:46.246Z,97049.66
2023-04-11T01:41:16.874Z,97048.02
2023-04-11T01:43:45.272Z,97048.76
2023-04-11T01:46:14.071Z,97048.98
2023-04-11T01:48:42.730Z,97044.89
2023-04-11T01:51:12.371Z,97046.46
2023-04-11T01:53:40.535Z,97040.54
2023-04-11T01:56:08.925Z,97037.83
2023-04-11T01:58:37.206Z,97034.95
2023-04-11T02:01:05.822Z,97032.60
2023-04-11T02:03:34.142Z,97032.46
2023-04-11T02:06:02.967Z,97035.43
2023-04-11T02:08:31.173Z,97034.41
2023-04-11T02:10:59.137Z,97027.45
2023-04-11T02:13:27.098Z,97026.61
2023-04-11T02:15:54.902Z,97026.11
2023-04-11T02:18:27.443Z,97022.20
2023-04-11T02:20:56.600Z,97023.42
2023-04-11T02:23:24.500Z,97022.59
2023-04-11T02:25:52.401Z,97022.08
2023-04-11T02:28:21.214Z,97015.78
2023-04-11T02:30:49.836Z,97012.93
2023-04-11T02:33:19.990Z,97009.89
2023-04-11T02:35:48.100Z,97008.23
2023-04-11T02:38:16.248Z,97007.39
2023-04-11T02:40:44.353Z,97005.73
2023-04-11T02:43:12.599Z,97004.52
2023-04-11T02:45:41.812Z,97004.27
2023-04-11T02:48:10.310Z,97006.66
2023-04-11T02:50:43.193Z,97007.43
2023-04-11T02:53:11.672Z,97010.20
2023-04-11T02:55:44.454Z,97009.36
2023-04-11T02:58:18.246Z,97006.48
2023-04-11T03:00:49.514Z,97006.20
2023-04-11T03:03:17.961Z,97005.71
2023-04-11T03:05:47.297Z,97002.38
2023-04-11T03:08:16.704Z,97000.21
2023-04-11T03:10:50.101Z,96998.56
2023-04-11T03:13:18.178Z,96997.96
2023-04-11T03:15:46.403Z,96994.83
2023-04-11T03:18:14.949Z,96992.84
2023-04-11T03:20:44.763Z,96990.65
2023-04-11T03:23:13.744Z,96989.38
2023-04-11T03:25:44.807Z,96988.11
2023-04-11T03:28:14.021Z,96986.27
2023-04-11T03:30:42.803Z,96987.05
2023-04-11T03:33:12.623Z,96984.95
2023-04-11T03:35:41.332Z,96982.98
2023-04-11T03:38:09.387Z,96983.94
2023-04-11T03:40:37.573Z,96983.34
2023-04-11T03:43:11.883Z,96986.54
2023-04-11T03:45:39.963Z,96981.52
2023-04-11T03:48:12.847Z,96981.98
2023-04-11T03:50:53.819Z,96980.06
2023-04-11T03:53:26.391Z,96980.33
2023-04-11T03:55:57.443Z,96979.38
2023-04-11T03:58:31.361Z,96981.09
2023-04-11T04:00:59.324Z,96981.02
2023-04-11T04:03:27.559Z,96978.91
2023-04-11T04:05:56.907Z,96980.27
2023-04-11T04:08:24.982Z,96978.80
2023-04-11T04:10:53.334Z,96977.91
2023-04-11T04:13:22.263Z,96978.22
2023-04-11T04:15:58.417Z,96976.83
2023-04-11T04:18:28.135Z,96978.30
2023-04-11T04:20:56.008Z,96978.80
2023-04-11T04:23:26.852Z,96979.11
2023-04-11T04:26:17.802Z,96979.25
2023-04-11T04:28:54.154Z,96980.20
2023-04-11T04:31:29.940Z,96982.55
2023-04-11T04:34:08.836Z,96977.87
2023-04-11T04:36:59.541Z,96975.22
2023-04-11T04:39:35.025Z,96969.63
2023-04-11T04:42:04.337Z,96969.70
2023-04-11T04:44:37.122Z,96970.10
2023-04-11T04:47:08.761Z,96972.91
2023-04-11T04:49:36.619Z,96975.80
2023-04-11T04:52:04.921Z,96976.02
2023-04-11T04:54:33.103Z,96979.66
2023-04-11T04:57:01.918Z,96979.52
2023-04-11T04:59:30.165Z,96976.73
2023-04-11T05:02:04.246Z,96978.98
2023-04-11T05:04:34.412Z,96978.30
2023-04-11T05:07:04.022Z,96981.95
2023-04-11T05:09:32.609Z,96983.02
2023-04-11T05:12:10.999Z,96982.85
2023-04-11T05:14:40.123Z,96982.19
2023-04-11T05:17:08.305Z,96981.35
2023-04-11T05:19:36.300Z,96979.98
2023-04-11T05:22:04.670Z,96978.27
2023-04-11T05:24:34.058Z,96978.95
2023-04-11T05:27:02.654Z,96977.24
2023-04-11T05:29:30.577Z,96977.54
2023-04-11T05:32:01.379Z,96975.14
2023-04-11T05:34:31.287Z,96971.16
2023-04-11T05:36:59.464Z,96967.70
2023-04-11T05:39:27.776Z,96964.91
2023-04-11T05:41:57.765Z,96961.91
2023-04-11T05:44:26.159Z,96961.50
2023-04-11T05:46:54.120Z,96960.58
2023-04-11T05:49:22.165Z,96957.08
2023-04-11T05:51:50.172Z,96954.42
2023-04-11T05:54:31.905Z,96951.41
2023-04-11T05:57:00.237Z,96949.80
2023-04-11T05:59:30.375Z,96943.90
2023-04-11T06:01:58.990Z,96945.16
2023-04-11T06:04:27.258Z,96943.88
2023-04-11T06:06:55.938Z,96946.14
2023-04-11T06:09:23.999Z,96946.58
2023-04-11T06:11:51.969Z,96944.41
2023-04-11T06:14:19.950Z,96944.77
2023-04-11T06:16:48.021Z,96941.76
2023-04-11T06:19:16.400Z,96934.71
2023-04-11T06:21:44.389Z,96936.47
2023-04-11T06:24:12.362Z,96933.90
2023-04-11T06:26:40.630Z,96935.80
2023-04-11T06:29:08.562Z,96930.80
2023-04-11T06:31:36.715Z,96924.25
2023-04-11T06:34:04.767Z,96924.24
2023-04-11T06:36:32.728Z,96924.33
2023-04-11T06:39:01.027Z,96925.09
2023-04-11T06:41:29.408Z,96924.19
2023-04-11T06:43:57.491Z,96922.89
2023-04-11T06:46:25.578Z,96920.60
2023-04-11T06:48:53.837Z,96923.02
2023-04-11T06:51:21.714Z,96920.36
2023-04-11T06:53:49.509Z,96919.40
2023-04-11T06:56:17.565Z,96921.88
2023-04-11T06:58:45.451Z,96917.16
2023-04-11T07:01:14.424Z,96920.67
2023-04-11T07:03:42.550Z,96918.36
2023-04-11T07:06:10.985Z,96914.65
2023-04-11T07:08:39.075Z,96914.55
2023-04-11T07:11:07.344Z,96908.25
2023-04-11T07:13:35.304Z,96910.23
2023-04-11T07:16:03.508Z,96911.44
2023-04-11T07:18:31.674Z,96908.36
2023-04-11T07:20:59.554Z,96906.16
2023-04-11T07:23:27.709Z,96902.38
2023-04-11T07:25:55.804Z,96900.46
2023-04-11T07:28:25.232Z,96902.53
2023-04-11T07:30:53.087Z,96894.95
2023-04-11T07:33:21.769Z,96894.06
2023-04-11T07:35:50.144Z,96890.98
2023-04-11T07:38:27.443Z,96886.98
2023-04-11T07:40:59.420Z,96886.83
2023-04-11T07:43:28.096Z,96884.84
2023-04-11T07:45:57.165Z,96886.48
2023-04-11T07:48:26.137Z,96882.84
2023-04-11T07:50:54.698Z,96881.42
2023-04-11T07:53:23.063Z,96878.98
2023-04-11T07:55:51.004Z,96868.48
2023-04-11T07:58:19.016Z,96869.30
2023-04-11T08:00:47.705Z,96872.55
2023-04-11T08:03:17.111Z,96872.69
2023-04-11T08:05:45.392Z,96871.23
2023-04-11T08:08:14.081Z,96869.14
2023-04-11T08:10:42.157Z,96868.45
2023-04-11T08:13:10.162Z,96866.88
2023-04-11T08:15:39.030Z,96863.06
2023-04-11T08:18:06.926Z,96851.70
2023-04-11T08:20:35.156Z,96849.89
2023-04-11T08:23:07.973Z,96843.02
2023-04-11T08:25:36.960Z,96837.66
2023-04-11T08:28:06.267Z,96837.74
2023-04-11T08:30:34.177Z,96828.91
2023-04-11T08:33:02.545Z,96823.73
2023-04-11T08:35:30.651Z,96824.09
2023-04-11T08:37:58.666Z,96817.27
2023-04-11T08:40:27.942Z,96813.21
2023-04-11T08:43:00.356Z,96805.54
2023-04-11T08:45:29.363Z,96802.34
2023-04-11T08:47:57.348Z,96805.86
2023-04-11T08:50:26.428Z,96801.97
2023-04-11T08:52:54.586Z,96794.35
2023-04-11T08:55:22.613Z,96792.88
2023-04-11T08:57:50.658Z,96796.02
2023-04-11T09:00:23.585Z,96786.29
2023-04-11T09:02:59.253Z,96789.27
2023-04-11T09:05:29.109Z,96783.79
2023-04-11T09:08:02.092Z,96775.75
2023-04-11T09:10:30.683Z,96765.77
2023-04-11T09:12:59.490Z,96764.29
2023-04-11T09:15:28.726Z,96755.00
2023-04-11T09:17:59.684Z,96750.56
2023-04-11T09:20:30.643Z,96745.95
2023-04-11T09:23:01.524Z,96752.51
2023-04-11T09:25:29.517Z,96751.14
2023-04-11T09:28:08.583Z,96750.81
2023-04-11T09:30:37.299Z,96737.95
2023-04-11T09:33:24.831Z,96731.70
2023-04-11T09:35:53.899Z,96729.98
2023-04-11T09:38:32.493Z,96725.61
2023-04-11T09:41:01.636Z,96722.10
2023-04-11T09:43:50.099Z,96723.11
2023-04-11T09:46:20.975Z,96721.70
2023-04-11T09:48:50.538Z,96717.39
2023-04-11T09:51:28.023Z,96717.22
2023-04-11T09:54:04.139Z,96711.16
2023-04-11T09:56:34.573Z,96706.88
2023-04-11T09:59:04.273Z,96703.48
2023-04-11T10:01:32.505Z,96699.16
2023-04-11T10:04:01.457Z,96689.91
2023-04-11T10:06:32.008Z,96683.73
2023-04-11T10:09:13.165Z,96684.05
2023-04-11T10:11:44.798Z,96682.29
2023-04-11T10:14:31.768Z,96678.17
2023-04-11T10:17:22.985Z,96676.60
2023-04-11T10:19:56.661Z,96677.70
2023-04-11T10:22:43.916Z,96671.66
2023-04-11T10:25:19.621Z,96665.48
2023-04-11T10:27:54.767Z,96662.98
2023-04-11T10:30:40.923Z,96659.71
2023-04-11T10:33:17.724Z,96655.67
2023-04-11T10:36:05.889Z,96651.25
2023-04-11T10:38:37.059Z,96651.84
2023-04-11T10:41:25.366Z,96646.09
2023-04-11T10:44:13.007Z,96642.67
2023-04-11T10:46:45.186Z,96636.72
2023-04-11T10:49:31.241Z,96634.34
2023-04-11T10:52:18.697Z,96629.23
2023-04-11T10:54:47.356Z,96626.39
2023-04-11T10:57:15.256Z,96629.08
2023-04-11T10:59:43.087Z,96622.10
2023-04-11T11:02:11.357Z,96618.45
2023-04-11T11:04:40.416Z,96616.43
2023-04-11T11:07:13.254Z,96612.34
2023-04-11T11:09:41.341Z,96607.73
2023-04-11T11:12:10.136Z,96606.55
2023-04-11T11:14:40.444Z,96605.61
2023-04-11T11:17:09.110Z,96597.95
2023-04-11T11:19:37.119Z,96595.44
2023-04-11T11:22:14.192Z,96591.23
2023-04-11T11:24:42.378Z,96583.92
2023-04-11T11:27:23.549Z,96577.80
2023-04-11T11:29:53.224Z,96576.35
2023-04-11T11:32:28.242Z,96574.73
2023-04-11T11:34:58.918Z,96572.64
2023-04-11T11:37:27.216Z,96566.30
2023-04-11T11:39:55.399Z,96562.80
2023-04-11T11:42:23.576Z,96558.29
2023-04-11T11:44:51.753Z,96557.41
2023-04-11T11:47:19.726Z,96554.70
2023-04-11T11:49:47.900Z,96548.57
2023-04-11T11:52:36.036Z,96543.86
2023-04-11T11:55:07.598Z,96540.81
2023-04-11T11:57:37.913Z,96541.15
2023-04-11T12:00:06.414Z,96536.98
2023-04-11T12:02:36.418Z,96533.23
2023-04-11T12:05:06.309Z,96530.94
2023-04-11T12:07:37.001Z,96527.73
2023-04-11T12:10:09.516Z,96525.57
2023-04-11T12:12:38.773Z,96517.83
2023-04-11T12:15:13.888Z,96514.27
2023-04-11T12:17:41.922Z,96514.50
2023-04-11T12:20:10.793Z,96507.20
2023-04-11T12:22:38.732Z,96504.02
2023-04-11T12:25:14.193Z,96503.67
2023-04-11T12:27:42.831Z,96497.29
2023-04-11T12:30:11.784Z,96490.69
2023-04-11T12:32:39.677Z,96488.77
2023-04-11T12:35:08.273Z,96479.81
2023-04-11T12:37:36.366Z,96476.64
2023-04-11T12:40:12.650Z,96473.50
2023-04-11T12:42:53.504Z,96470.33
2023-04-11T12:45:23.506Z,96466.64
2023-04-11T12:47:51.768Z,96461.95
2023-04-11T12:50:20.022Z,96461.48
2023-04-11T12:52:49.567Z,96459.94
2023-04-11T12:55:17.940Z,96456.60
2023-04-11T12:57:46.105Z,96456.91
2023-04-11T13:00:15.161Z,96454.98
2023-04-11T13:02:44.945Z,96452.51
2023-04-11T13:05:17.131Z,96449.69
2023-04-11T13:07:46.375Z,96449.32
2023-04-11T13:10:16.267Z,96446.52
2023-04-11T13:12:45.367Z,96441.81
2023-04-11T13:15:15.246Z,96437.89
2023-04-11T13:17:43.508Z,96431.27
2023-04-11T13:20:12.844Z,96435.30
2023-04-11T13:22:42.236Z,96430.72
2023-04-11T13:25:10.919Z,96428.05
2023-04-11T13:27:40.255Z,96424.91
2023-04-11T13:30:09.935Z,96415.25
2023-04-11T13:32:38.053Z,96409.16
2023-04-11T13:35:06.306Z,96405.52
2023-04-11T13:37:34.235Z,96402.39
2023-04-11T13:40:02.156Z,96397.42
2023-04-11T13:42:30.059Z,96399.52
2023-04-11T13:44:57.898Z,96396.34
2023-04-11T13:47:25.897Z,96384.78
2023-04-11T13:49:53.929Z,96383.89
2023-04-11T13:52:23.082Z,96378.73
2023-04-11T13:54:50.950Z,96374.25
2023-04-11T13:57:18.921Z,96371.34
2023-04-11T13:59:46.737Z,96370.06
2023-04-11T14:02:14.645Z,96370.80
2023-04-11T14:04:42.891Z,96367.02
2023-04-11T14:07:10.895Z,96369.96
2023-04-11T14:09:38.725Z,96371.63
2023-04-11T14:12:06.691Z,96370.48
2023-04-11T14:14:34.575Z,96370.09
2023-04-11T14:17:02.542Z,96365.85
2023-04-11T14:19:30.598Z,96366.38
2023-04-11T14:21:58.787Z,96362.84
2023-04-11T14:24:26.701Z,96361.88
2023-04-11T14:26:54.610Z,96362.23
2023-04-11T14:29:23.120Z,96362.46
2023-04-11T14:31:51.330Z,96364.24
2023-04-11T14:34:19.373Z,96368.46
2023-04-11T14:36:47.401Z,96367.46
2023-04-11T14:39:15.530Z,96369.23
2023-04-11T14:41:43.421Z,96367.52
2023-04-11T14:44:12.043Z,96367.52
2023-04-11T14:46:40.087Z,96366.30
2023-04-11T14:49:08.135Z,96367.11
2023-04-11T14:51:37.013Z,96365.39
2023-04-11T14:54:05.695Z,96363.69
2023-04-11T14:56:33.743Z,96361.05
2023-04-11T14:59:01.711Z,96360.20
2023-04-11T15:01:30.191Z,96360.73
2023-04-11T15:03:58.463Z,96361.67
2023-04-11T15:06:26.828Z,96360.27
2023-04-11T15:08:54.736Z,96360.28
2023-04-11T15:11:22.560Z,96361.61
2023-04-11T15:13:52.918Z,96356.43
2023-04-11T15:16:23.722Z,96353.11
2023-04-11T15:18:51.800Z,96355.13
2023-04-11T15:21:20.496Z,96358.55
2023-04-11T15:23:48.404Z,96356.17
2023-04-11T15:26:16.375Z,96350.63
2023-04-11T15:28:46.160Z,96351.86
2023-04-11T15:31:15.109Z,96349.72
2023-04-11T15:33:43.271Z,96348.62
2023-04-11T15:36:11.512Z,96348.09
2023-04-11T15:38:39.636Z,96348.67
2023-04-11T15:41:07.967Z,96354.60
2023-04-11T15:43:36.065Z,96354.29
2023-04-11T15:46:04.267Z,96350.41
2023-04-11T15:48:32.707Z,96349.42
2023-04-11T15:51:08.017Z,96348.96
2023-04-11T15:53:36.279Z,96356.27
2023-04-11T15:56:05.114Z,96352.52
2023-04-11T15:58:33.981Z,96349.50
2023-04-11T16:01:02.502Z,96348.96
2023-04-11T16:03:33.701Z,96353.48
2023-04-11T16:06:02.874Z,96357.68
2023-04-11T16:08:31.179Z,96359.54
2023-04-11T16:10:59.167Z,96364.26
2023-04-11T16:13:27.058Z,96364.67
2023-04-11T16:15:55.034Z,96369.40
2023-04-11T16:18:23.009Z,96370.64
2023-04-11T16:20:52.575Z,96381.05
2023-04-11T16:23:20.550Z,96375.67
2023-04-11T16:25:48.448Z,96371.88
2023-04-11T16:28:16.436Z,96368.52
2023-04-11T16:30:44.466Z,96367.36
2023-04-11T16:33:13.161Z,96375.09
2023-04-11T16:35:41.180Z,96376.30
2023-04-11T16:38:09.218Z,96372.13
2023-04-11T16:40:38.108Z,96369.14
2023-04-11T16:43:06.488Z,96368.17
2023-04-11T16:45:34.883Z,96370.94
2023-04-11T16:48:03.527Z,96373.58
2023-04-11T16:50:32.254Z,96377.07
2023-04-11T16:53:00.336Z,96382.79
2023-04-11T16:55:28.512Z,96384.85
2023-04-11T16:57:56.494Z,96380.85
2023-04-11T17:00:24.776Z,96384.37
2023-04-11T17:02:53.067Z,96383.69
2023-04-11T17:05:21.427Z,96384.83
2023-04-11T17:07:49.813Z,96383.33
2023-04-11T17:10:17.811Z,96385.77
2023-04-11T17:12:45.808Z,96389.20
2023-04-11T17:15:13.752Z,96390.30
2023-04-11T17:17:41.885Z,96383.60
2023-04-11T17:20:10.292Z,96387.32
2023-04-11T17:22:41.661Z,96385.02
2023-04-11T17:25:10.507Z,96381.20
2023-04-11T17:27:38.939Z,96384.13
2023-04-11T17:30:09.524Z,96387.14
2023-04-11T17:32:38.293Z,96385.25
2023-04-11T17:35:06.846Z,96384.62
2023-04-11T17:37:36.148Z,96386.42
2023-04-11T17:40:11.191Z,96389.77
2023-04-11T17:42:39.361Z,96391.21
2023-04-11T17:45:16.463Z,96393.35
2023-04-11T17:47:48.930Z,96391.18
2023-04-11T17:50:17.387Z,96390.63
2023-04-11T17:52:47.654Z,96394.05
2023-04-11T17:55:19.002Z,96394.06
2023-04-11T17:57:50.367Z,96401.10
2023-04-11T18:00:22.365Z,96402.42
2023-04-11T18:02:52.695Z,96400.23
2023-04-11T18:05:24.521Z,96405.80
2023-04-11T18:07:54.521Z,96406.59
2023-04-11T18:10:23.049Z,96407.55
2023-04-11T18:12:51.987Z,96406.62
2023-04-11T18:15:22.418Z,96407.45
2023-04-11T18:17:51.519Z,96407.97
2023-04-11T18:20:20.011Z,96411.17
2023-04-11T18:22:49.617Z,96408.17
2023-04-11T18:25:18.554Z,96409.61
2023-04-11T18:27:47.413Z,96408.56
2023-04-11T18:30:16.534Z,96405.94
2023-04-11T18:32:49.638Z,96408.75
2023-04-11T18:35:18.604Z,96407.91
2023-04-11T18:37:47.421Z,96409.06
2023-04-11T18:40:19.342Z,96406.86
2023-04-11T18:42:50.478Z,96409.16
2023-04-11T18:45:25.430Z,96405.03
2023-04-11T18:47:53.590Z,96410.90
2023-04-11T18:50:23.124Z,96411.89
2023-04-11T18:52:55.425Z,96416.16
2023-04-11T18:55:24.670Z,96414.45
2023-04-11T18:57:55.909Z,96414.05
2023-04-11T19:00:25.265Z,96412.80
2023-04-11T19:02:53.663Z,96410.94
2023-04-11T19:05:25.080Z,96406.48
2023-04-11T19:07:53.511Z,96407.05
2023-04-11T19:10:21.542Z,96401.38
2023-04-11T19:12:49.517Z,96397.35
2023-04-11T19:15:17.491Z,96392.28
2023-04-11T19:17:45.926Z,96391.99
2023-04-11T19:20:15.927Z,96390.52
2023-04-11T19:22:43.974Z,96393.71
2023-04-11T19:25:12.554Z,96388.83
2023-04-11T19:27:44.629Z,96390.66
2023-04-11T19:30:14.043Z,96386.01
2023-04-11T19:32:44.080Z,96384.67
2023-04-11T19:35:14.282Z,96385.80
2023-04-11T19:37:42.843Z,96385.15
2023-04-11T19:40:11.560Z,96378.02
2023-04-11T19:42:42.806Z,96378.72
2023-04-11T19:45:11.850Z,96374.58
2023-04-11T19:47:40.967Z,96369.49
2023-04-11T19:50:12.096Z,96365.17
2023-04-11T19:52:41.280Z,96363.23
2023-04-11T19:55:12.374Z,96363.06
2023-04-11T19:57:41.311Z,96356.13
2023-04-11T20:00:13.382Z,96353.95
2023-04-11T20:02:44.792Z,96348.64
2023-04-11T20:05:17.384Z,96351.67
2023-04-11T20:07:46.509Z,96353.35
2023-04-11T20:10:15.285Z,96352.02
2023-04-11T20:12:43.320Z,96348.75
2023-04-11T20:15:11.867Z,96345.71
2023-04-11T20:17:39.999Z,96345.96
2023-04-11T20:20:12.537Z,96344.77
2023-04-11T20:22:40.893Z,96342.61
2023-04-11T20:25:11.821Z,96343.09
2023-04-11T20:27:40.932Z,96342.84
2023-04-11T20:30:10.774Z,96340.34
2023-04-11T20:32:42.010Z,96342.15
2023-04-11T20:35:12.268Z,96339.64
2023-04-11T20:37:43.800Z,96334.42
2023-04-11T20:40:14.125Z,96329.55
2023-04-11T20:42:43.120Z,96326.89
2023-04-11T20:45:16.392Z,96325.63
2023-04-11T20:47:49.933Z,96326.77
2023-04-11T20:50:19.542Z,96324.42
2023-04-11T20:52:50.687Z,96323.48
2023-04-11T20:55:19.063Z,96316.38
2023-04-11T20:57:47.112Z,96316.63
2023-04-11T21:00:17.299Z,96319.80
2023-04-11T21:02:47.181Z,96315.77
2023-04-11T21:05:16.469Z,96315.48
2023-04-11T21:07:44.398Z,96317.28
2023-04-11T21:10:12.434Z,96317.52
2023-04-11T21:12:41.412Z,96319.84
2023-04-11T21:15:09.930Z,96322.66
2023-04-11T21:17:39.634Z,96320.19
2023-04-11T21:20:18.038Z,96319.98
2023-04-11T21:22:53.359Z,96317.48
2023-04-11T21:25:21.866Z,96317.65
2023-04-11T21:27:50.242Z,96315.56
2023-04-11T21:30:18.305Z,96315.98
2023-04-11T21:32:46.211Z,96313.23
2023-04-11T21:35:14.379Z,96309.10
2023-04-11T21:37:42.330Z,96306.10
2023-04-11T21:40:10.944Z,96302.61
2023-04-11T21:42:38.886Z,96300.21
2023-04-11T21:45:08.331Z,96297.60
2023-04-11T21:47:36.330Z,96291.62
2023-04-11T21:50:04.687Z,96288.67
2023-04-11T21:52:32.656Z,96285.08
2023-04-11T21:55:00.817Z,96287.77
2023-04-11T21:57:28.875Z,96285.13
2023-04-11T21:59:56.688Z,96282.21
2023-04-11T22:02:24.612Z,96280.23
2023-04-11T22:05:05.531Z,96279.40
2023-04-11T22:07:46.909Z,96277.96
2023-04-11T22:10:15.375Z,96272.92
2023-04-11T22:12:45.624Z,96271.88
2023-04-11T22:15:14.197Z,96268.96
2023-04-11T22:17:43.819Z,96269.52
2023-04-11T22:20:12.272Z,96263.90
2023-04-11T22:22:40.351Z,96262.02
2023-04-11T22:25:08.586Z,96261.16
2023-04-11T22:27:36.712Z,96262.70
2023-04-11T22:30:05.449Z,96258.38
2023-04-11T22:32:33.813Z,96253.71
2023-04-11T22:35:01.979Z,96249.77
2023-04-11T22:37:30.139Z,96244.38
2023-04-11T22:39:58.117Z,96237.81
2023-04-11T22:42:26.110Z,96235.91
2023-04-11T22:44:54.061Z,96236.91
2023-04-11T22:47:22.084Z,96233.85
2023-04-11T22:49:50.669Z,96232.27
2023-04-11T22:52:24.463Z,96232.30
2023-04-11T22:54:52.498Z,96230.77
2023-04-11T22:57:20.582Z,96226.22
2023-04-11T22:59:48.565Z,96223.29
2023-04-11T23:02:16.606Z,96220.48
2023-04-11T23:04:45.310Z,96217.54
2023-04-11T23:07:13.322Z,96212.00
2023-04-11T23:09:41.264Z,96210.27
2023-04-11T23:12:09.138Z,96209.65
2023-04-11T23:14:37.210Z,96205.95
2023-04-11T23:17:05.164Z,96200.67
2023-04-11T23:19:34.292Z,96198.21
2023-04-11T23:22:02.266Z,96198.23
2023-04-11T23:24:30.348Z,96192.60
2023-04-11T23:26:58.622Z,96195.12
2023-04-11T23:29:27.618Z,96190.55
2023-04-11T23:31:55.595Z,96184.05
2023-04-11T23:34:23.566Z,96182.22
2023-04-11T23:36:51.950Z,96178.95
2023-04-11T23:39:21.654Z,96174.44
2023-04-11T23:41:52.098Z,96169.83
2023-04-11T23:44:20.069Z,96169.68
2023-04-11T23:46:48.143Z,96167.17
2023-04-11T23:49:16.326Z,96165.10
2023-04-11T23:51:44.257Z,96162.34
2023-04-11T23:54:12.271Z,96156.15
2023-04-11T23:56:40.146Z,96152.64
2023-04-11T23:59:08.012Z,96147.52
